createdAt,value
2018-07-24T00:01:35.788Z,100495.13
2018-07-24T00:04:07.145Z,100494.30
2018-07-24T00:06:35.680Z,100500.52
2018-07-24T00:09:06.510Z,100498.70
2018-07-24T00:11:35.248Z,100493.84
2018-07-24T00:14:04.560Z,100490.84
2018-07-24T00:16:33.157Z,100487.00
2018-07-24T00:19:02.942Z,100485.81
2018-07-24T00:21:31.534Z,100490.02
2018-07-24T00:24:05.178Z,100488.86
2018-07-24T00:26:33.800Z,100490.39
2018-07-24T00:29:02.320Z,100489.73
2018-07-24T00:31:30.930Z,100485.36
2018-07-24T00:33:59.480Z,100484.89
2018-07-24T00:36:28.050Z,100475.81
2018-07-24T00:38:59.938Z,100483.71
2018-07-24T00:41:34.167Z,100484.19
2018-07-24T00:44:03.474Z,100472.78
2018-07-24T00:46:32.601Z,100476.15
2018-07-24T00:49:01.106Z,100473.84
2018-07-24T00:51:29.645Z,100466.95
2018-07-24T00:53:58.258Z,100468.47
2018-07-24T00:56:27.136Z,100465.78
2018-07-24T00:58:55.900Z,100463.09
2018-07-24T01:01:24.605Z,100460.75
2018-07-24T01:03:55.984Z,100460.94
2018-07-24T01:06:24.585Z,100460.77
2018-07-24T01:08:53.113Z,100461.77
2018-07-24T01:11:26.915Z,100461.11
2018-07-24T01:13:56.041Z,100454.39
2018-07-24T01:16:24.557Z,100451.03
2018-07-24T01:18:53.108Z,100454.06
2018-07-24T01:21:22.206Z,100453.39
2018-07-24T01:23:50.759Z,100457.25
2018-07-24T01:26:23.420Z,100447.35
2018-07-24T01:28:52.254Z,100443.33
2018-07-24T01:31:22.744Z,100440.79
2018-07-24T01:33:51.419Z,100445.32
2018-07-24T01:36:20.424Z,100447.52
2018-07-24T01:38:48.955Z,100446.99
2018-07-24T01:41:18.873Z,100443.95
2018-07-24T01:43:47.457Z,100442.47
2018-07-24T01:46:18.278Z,100439.27
2018-07-24T01:48:46.771Z,100439.62
2018-07-24T01:51:15.359Z,100436.41
2018-07-24T01:53:44.222Z,100436.27
2018-07-24T01:56:13.142Z,100437.61
2018-07-24T01:58:41.759Z,100436.41
2018-07-24T02:01:10.352Z,100437.76
2018-07-24T02:03:38.842Z,100437.93
2018-07-24T02:06:08.898Z,100436.77
2018-07-24T02:08:37.439Z,100435.92
2018-07-24T02:11:06.022Z,100433.23
2018-07-24T02:13:34.599Z,100431.54
2018-07-24T02:16:04.252Z,100427.69
2018-07-24T02:18:38.649Z,100425.67
2018-07-24T02:21:07.465Z,100421.97
2018-07-24T02:23:36.706Z,100420.30
2018-07-24T02:26:06.505Z,100422.14
2018-07-24T02:28:38.497Z,100417.44
2018-07-24T02:31:07.154Z,100418.11
2018-07-24T02:33:35.806Z,100410.05
2018-07-24T02:36:06.195Z,100410.73
2018-07-24T02:38:34.725Z,100412.73
2018-07-24T02:41:03.407Z,100413.37
2018-07-24T02:43:32.144Z,100410.52
2018-07-24T02:46:00.804Z,100410.33
2018-07-24T02:48:29.313Z,100413.36
2018-07-24T02:50:58.185Z,100416.85
2018-07-24T02:53:27.136Z,100415.52
2018-07-24T02:55:55.757Z,100416.00
2018-07-24T02:58:24.327Z,100411.98
2018-07-24T03:00:53.216Z,100402.09
2018-07-24T03:03:22.039Z,100405.62
2018-07-24T03:05:50.662Z,100409.95
2018-07-24T03:08:19.272Z,100402.58
2018-07-24T03:10:47.858Z,100405.75
2018-07-24T03:13:17.039Z,100407.27
2018-07-24T03:15:45.572Z,100405.73
2018-07-24T03:18:20.614Z,100406.93
2018-07-24T03:20:49.524Z,100408.09
2018-07-24T03:23:18.137Z,100407.59
2018-07-24T03:25:46.701Z,100413.58
2018-07-24T03:30:49.266Z,100419.45
2018-07-24T03:33:24.186Z,100421.46
2018-07-24T03:35:52.818Z,100416.22
2018-07-24T03:38:21.428Z,100422.25
2018-07-24T03:40:50.060Z,100416.56
2018-07-24T03:43:19.183Z,100421.39
2018-07-24T03:45:50.481Z,100421.58
2018-07-24T03:48:19.012Z,100420.73
2018-07-24T03:50:47.581Z,100415.21
2018-07-24T03:53:16.396Z,100413.69
2018-07-24T03:55:44.937Z,100417.22
2018-07-24T03:58:24.807Z,100416.69
2018-07-24T04:01:00.320Z,100420.71
2018-07-24T04:03:30.533Z,100421.23
2018-07-24T04:05:59.163Z,100420.56
2018-07-24T04:08:27.735Z,100419.36
2018-07-24T04:10:56.808Z,100425.91
2018-07-24T04:13:25.454Z,100422.16
2018-07-24T04:15:54.039Z,100428.50
2018-07-24T04:18:22.656Z,100425.82
2018-07-24T04:20:53.147Z,100425.14
2018-07-24T04:23:21.753Z,100422.63
2018-07-24T04:25:55.949Z,100434.20
2018-07-24T04:28:24.519Z,100433.53
2018-07-24T04:30:53.488Z,100435.06
2018-07-24T04:33:22.271Z,100433.20
2018-07-24T04:35:56.745Z,100435.72
2018-07-24T04:38:25.613Z,100435.38
2018-07-24T04:40:54.206Z,100431.02
2018-07-24T04:43:22.783Z,100430.01
2018-07-24T04:45:51.561Z,100428.67
2018-07-24T04:48:20.401Z,100426.84
2018-07-24T04:50:48.974Z,100425.82
2018-07-24T04:53:17.883Z,100430.06
2018-07-24T04:55:46.423Z,100427.56
2018-07-24T04:58:16.836Z,100418.69
2018-07-24T05:00:45.425Z,100419.37
2018-07-24T05:03:14.072Z,100418.89
2018-07-24T05:05:45.961Z,100418.91
2018-07-24T05:08:14.519Z,100422.28
2018-07-24T05:10:43.142Z,100422.95
2018-07-24T05:13:12.279Z,100422.97
2018-07-24T05:15:41.228Z,100421.98
2018-07-24T05:18:09.807Z,100424.69
2018-07-24T05:20:49.284Z,100430.72
2018-07-24T05:23:17.863Z,100430.05
2018-07-24T05:25:46.813Z,100436.45
2018-07-24T05:28:15.384Z,100432.10
2018-07-24T05:30:47.276Z,100430.13
2018-07-24T05:33:16.165Z,100431.48
2018-07-24T05:35:44.743Z,100426.97
2018-07-24T05:38:13.374Z,100434.70
2018-07-24T05:40:47.585Z,100432.70
2018-07-24T05:43:16.499Z,100432.73
2018-07-24T05:45:45.064Z,100431.89
2018-07-24T05:48:13.588Z,100426.52
2018-07-24T05:50:42.555Z,100427.02
2018-07-24T05:53:11.120Z,100432.23
2018-07-24T05:55:39.651Z,100432.91
2018-07-24T05:58:08.605Z,100429.55
2018-07-24T06:00:37.235Z,100438.09
2018-07-24T06:03:05.861Z,100435.90
2018-07-24T06:05:34.671Z,100437.45
2018-07-24T06:08:04.200Z,100438.45
2018-07-24T06:10:32.868Z,100436.92
2018-07-24T06:13:02.031Z,100436.23
2018-07-24T06:15:30.914Z,100430.03
2018-07-24T06:18:03.467Z,100437.72
2018-07-24T06:20:32.084Z,100439.22
2018-07-24T06:23:00.795Z,100431.80
2018-07-24T06:25:34.387Z,100426.40
2018-07-24T06:28:03.767Z,100431.81
2018-07-24T06:30:32.465Z,100431.92
2018-07-24T06:33:01.531Z,100435.30
2018-07-24T06:35:30.050Z,100428.41
2018-07-24T06:37:58.646Z,100430.23
2018-07-24T06:40:29.039Z,100428.86
2018-07-24T06:42:57.648Z,100430.35
2018-07-24T06:45:31.414Z,100432.16
2018-07-24T06:48:00.306Z,100433.82
2018-07-24T06:50:29.271Z,100432.95
2018-07-24T06:52:57.903Z,100433.94
2018-07-24T06:55:26.812Z,100437.78
2018-07-24T06:58:03.552Z,100436.09
2018-07-24T07:00:32.051Z,100433.54
2018-07-24T07:03:00.687Z,100436.23
2018-07-24T07:05:29.477Z,100439.71
2018-07-24T07:07:58.323Z,100436.91
2018-07-24T07:10:26.988Z,100431.98
2018-07-24T07:12:55.638Z,100428.08
2018-07-24T07:15:24.230Z,100427.89
2018-07-24T07:17:52.885Z,100432.59
2018-07-24T07:20:21.859Z,100430.21
2018-07-24T07:22:50.393Z,100429.14
2018-07-24T07:25:19.071Z,100427.45
2018-07-24T07:27:48.001Z,100425.42
2018-07-24T07:30:23.716Z,100424.61
2018-07-24T07:32:52.495Z,100424.17
2018-07-24T07:35:21.167Z,100419.81
2018-07-24T07:37:49.763Z,100427.34
2018-07-24T07:40:19.414Z,100426.73
2018-07-24T07:42:48.101Z,100418.12
2018-07-24T07:45:16.852Z,100423.36
2018-07-24T07:47:45.680Z,100420.98
2018-07-24T07:50:19.164Z,100417.73
2018-07-24T07:52:48.045Z,100412.45
2018-07-24T07:55:16.665Z,100412.62
2018-07-24T07:57:45.196Z,100411.42
2018-07-24T08:00:14.848Z,100416.22
2018-07-24T08:02:43.343Z,100410.77
2018-07-24T08:05:11.843Z,100408.03
2018-07-24T08:07:40.408Z,100410.50
2018-07-24T08:10:09.040Z,100413.13
2018-07-24T08:12:37.879Z,100402.97
2018-07-24T08:15:06.722Z,100403.81
2018-07-24T08:17:35.786Z,100404.66
2018-07-24T08:20:05.841Z,100401.73
2018-07-24T08:22:34.475Z,100409.41
2018-07-24T08:25:03.157Z,100398.89
2018-07-24T08:27:35.500Z,100402.70
2018-07-24T08:30:05.288Z,100398.25
2018-07-24T08:32:33.955Z,100402.41
2018-07-24T08:35:03.004Z,100395.91
2018-07-24T08:37:31.762Z,100398.70
2018-07-24T08:40:00.480Z,100396.97
2018-07-24T08:42:29.377Z,100392.42
2018-07-24T08:44:57.945Z,100397.72
2018-07-24T08:47:26.470Z,100399.17
2018-07-24T08:50:04.732Z,100400.11
2018-07-24T08:52:33.357Z,100396.17
2018-07-24T08:55:02.206Z,100396.98
2018-07-24T08:57:30.557Z,100392.23
2018-07-24T09:00:06.654Z,100388.48
2018-07-24T09:02:35.460Z,100384.56
2018-07-24T09:05:04.579Z,100384.12
2018-07-24T09:07:33.153Z,100383.69
2018-07-24T09:10:03.742Z,100378.49
2018-07-24T09:12:34.490Z,100378.10
2018-07-24T09:15:03.621Z,100371.29
2018-07-24T09:17:39.054Z,100377.26
2018-07-24T09:20:07.811Z,100374.54
2018-07-24T09:22:37.055Z,100376.70
2018-07-24T09:25:05.899Z,100375.72
2018-07-24T09:27:39.779Z,100376.02
2018-07-24T09:30:08.372Z,100375.40
2018-07-24T09:32:36.942Z,100368.14
2018-07-24T09:35:05.720Z,100371.56
2018-07-24T09:37:37.526Z,100365.78
2018-07-24T09:40:08.056Z,100363.18
2018-07-24T09:42:36.550Z,100366.08
2018-07-24T09:45:06.031Z,100360.80
2018-07-24T09:47:34.652Z,100366.39
2018-07-24T09:50:06.731Z,100365.48
2018-07-24T09:52:35.357Z,100361.91
2018-07-24T09:55:09.311Z,100371.00
2018-07-24T09:57:38.180Z,100361.83
2018-07-24T10:00:08.077Z,100361.11
2018-07-24T10:02:37.194Z,100359.41
2018-07-24T10:05:05.984Z,100350.81
2018-07-24T10:07:34.827Z,100351.59
2018-07-24T10:10:04.808Z,100348.87
2018-07-24T10:12:33.898Z,100344.53
2018-07-24T10:15:02.633Z,100344.86
2018-07-24T10:17:34.872Z,100343.06
2018-07-24T10:20:04.560Z,100343.06
2018-07-24T10:22:33.142Z,100339.42
2018-07-24T10:25:02.247Z,100335.22
2018-07-24T10:27:30.950Z,100332.94
2018-07-24T10:29:59.727Z,100326.36
2018-07-24T10:32:28.366Z,100319.55
2018-07-24T10:34:57.068Z,100312.25
2018-07-24T10:37:25.970Z,100314.98
2018-07-24T10:39:54.578Z,100315.83
2018-07-24T10:42:23.278Z,100311.63
2018-07-24T10:44:52.301Z,100308.33
2018-07-24T10:47:20.878Z,100304.54
2018-07-24T10:49:49.832Z,100297.42
2018-07-24T10:52:19.430Z,100305.50
2018-07-24T10:54:48.880Z,100306.48
2018-07-24T10:57:23.539Z,100304.28
2018-07-24T10:59:52.809Z,100303.81
2018-07-24T11:02:22.281Z,100306.67
2018-07-24T11:04:51.250Z,100298.14
2018-07-24T11:07:22.964Z,100286.36
2018-07-24T11:09:52.978Z,100287.14
2018-07-24T11:12:21.698Z,100288.84
2018-07-24T11:14:50.487Z,100284.44
2018-07-24T11:17:19.789Z,100286.79
2018-07-24T11:19:48.751Z,100277.20
2018-07-24T11:22:17.417Z,100282.58
2018-07-24T11:24:46.479Z,100277.62
2018-07-24T11:27:15.469Z,100282.66
2018-07-24T11:29:44.473Z,100282.44
2018-07-24T11:32:15.386Z,100271.21
2018-07-24T11:34:45.292Z,100268.16
2018-07-24T11:37:14.085Z,100261.03
2018-07-24T11:39:44.233Z,100263.63
2018-07-24T11:42:19.557Z,100265.64
2018-07-24T11:44:48.276Z,100261.42
2018-07-24T11:47:16.950Z,100256.55
2018-07-24T11:49:45.851Z,100249.66
2018-07-24T11:52:14.996Z,100253.60
2018-07-24T11:54:50.608Z,100252.12
2018-07-24T11:57:19.291Z,100246.91
2018-07-24T11:59:54.951Z,100249.98
2018-07-24T12:02:24.334Z,100246.98
2018-07-24T12:04:53.568Z,100248.18
2018-07-24T12:07:22.478Z,100241.03
2018-07-24T12:09:51.116Z,100239.13
2018-07-24T12:12:20.391Z,100237.18
2018-07-24T12:14:53.183Z,100230.89
2018-07-24T12:17:23.711Z,100228.20
2018-07-24T12:19:52.557Z,100226.13
2018-07-24T12:22:23.883Z,100227.98
2018-07-24T12:24:54.054Z,100218.27
2018-07-24T12:27:22.912Z,100219.45
2018-07-24T12:29:51.648Z,100208.14
2018-07-24T12:32:20.439Z,100207.86
2018-07-24T12:34:50.525Z,100201.21
2018-07-24T12:37:21.735Z,100206.38
2018-07-24T12:39:55.474Z,100204.45
2018-07-24T12:42:24.742Z,100205.30
2018-07-24T12:44:55.243Z,100212.03
2018-07-24T12:47:25.204Z,100214.91
2018-07-24T12:49:53.933Z,100202.56
2018-07-24T12:52:24.386Z,100193.50
2018-07-24T12:54:53.707Z,100199.98
2018-07-24T12:57:22.489Z,100203.88
2018-07-24T12:59:51.252Z,100198.95
2018-07-24T13:02:20.221Z,100195.96
2018-07-24T13:04:49.474Z,100196.19
2018-07-24T13:07:18.150Z,100191.31
2018-07-24T13:09:47.059Z,100187.56
2018-07-24T13:12:16.136Z,100191.20
2018-07-24T13:14:45.103Z,100183.39
2018-07-24T13:17:14.300Z,100187.86
2018-07-24T13:19:55.049Z,100182.72
2018-07-24T13:22:30.315Z,100175.49
2018-07-24T13:24:59.795Z,100169.84
2018-07-24T13:27:31.941Z,100170.78
2018-07-24T13:30:02.744Z,100161.06
2018-07-24T13:32:42.353Z,100152.14
2018-07-24T13:35:11.484Z,100158.28
2018-07-24T13:37:40.263Z,100157.25
2018-07-24T13:40:11.337Z,100152.42
2018-07-24T13:42:40.481Z,100157.35
2018-07-24T13:45:11.579Z,100158.42
2018-07-24T13:47:40.629Z,100151.99
2018-07-24T13:50:14.970Z,100156.41
2018-07-24T13:52:45.941Z,100155.61
2018-07-24T13:55:15.355Z,100155.31
2018-07-24T13:57:44.570Z,100152.35
2018-07-24T14:00:13.274Z,100152.66
2018-07-24T14:02:42.096Z,100145.69
2018-07-24T14:05:14.769Z,100147.39
2018-07-24T14:07:43.746Z,100145.70
2018-07-24T14:10:18.617Z,100150.67
2018-07-24T14:12:48.045Z,100137.38
2018-07-24T14:15:22.326Z,100133.62
2018-07-24T14:17:51.250Z,100136.69
2018-07-24T14:20:20.151Z,100125.26
2018-07-24T14:22:49.164Z,100124.55
2018-07-24T14:25:18.118Z,100121.28
2018-07-24T14:27:47.332Z,100125.48
2018-07-24T14:30:15.977Z,100120.66
2018-07-24T14:32:50.293Z,100120.09
2018-07-24T14:35:19.365Z,100117.55
2018-07-24T14:38:02.659Z,100125.27
2018-07-24T14:40:33.717Z,100120.91
2018-07-24T14:43:03.795Z,100115.19
2018-07-24T14:45:33.176Z,100114.31
2018-07-24T14:48:08.671Z,100110.02
2018-07-24T14:50:37.548Z,100109.47
2018-07-24T14:53:08.072Z,100105.41
2018-07-24T14:55:36.972Z,100105.97
2018-07-24T14:58:06.647Z,100107.01
2018-07-24T15:00:35.427Z,100094.70
2018-07-24T15:03:04.446Z,100097.75
2018-07-24T15:05:33.587Z,100106.96
2018-07-24T15:08:03.534Z,100103.73
2018-07-24T15:10:32.509Z,100099.27
2018-07-24T15:13:03.490Z,100101.61
2018-07-24T15:15:32.306Z,100099.88
2018-07-24T15:18:03.383Z,100099.06
2018-07-24T15:20:32.217Z,100092.88
2018-07-24T15:23:15.033Z,100092.55
2018-07-24T15:26:06.916Z,100084.52
2018-07-24T15:28:36.709Z,100084.86
2018-07-24T15:31:09.368Z,100085.19
2018-07-24T15:33:38.479Z,100084.92
2018-07-24T15:36:07.402Z,100085.61
2018-07-24T15:38:39.793Z,100084.90
2018-07-24T15:41:09.060Z,100074.50
2018-07-24T15:43:44.450Z,100076.62
2018-07-24T15:46:13.483Z,100075.76
2018-07-24T15:48:42.328Z,100067.50
2018-07-24T15:51:16.321Z,100068.98
2018-07-24T15:53:45.034Z,100061.07
2018-07-24T15:56:13.658Z,100062.88
2018-07-24T15:58:42.751Z,100058.36
2018-07-24T16:01:11.352Z,100059.43
2018-07-24T16:03:45.065Z,100063.75
2018-07-24T16:06:14.125Z,100054.59
2018-07-24T16:08:42.912Z,100049.00
2018-07-24T16:11:12.472Z,100047.81
2018-07-24T16:13:41.259Z,100049.00
2018-07-24T16:16:11.280Z,100051.58
2018-07-24T16:18:39.891Z,100050.02
2018-07-24T16:21:09.158Z,100057.51
2018-07-24T16:23:38.152Z,100060.57
2018-07-24T16:26:07.007Z,100057.34
2018-07-24T16:28:35.761Z,100061.44
2018-07-24T16:31:05.038Z,100058.97
2018-07-24T16:33:34.051Z,100054.34
2018-07-24T16:36:04.365Z,100031.24
2018-07-24T16:38:33.791Z,100050.73
2018-07-24T16:41:08.605Z,100053.91
2018-07-24T16:43:37.277Z,100053.48
2018-07-24T16:46:06.486Z,100054.09
2018-07-24T16:48:36.397Z,100052.81
2018-07-24T16:51:06.802Z,100050.30
2018-07-24T16:53:35.860Z,100055.03
2018-07-24T16:56:06.328Z,100054.08
2018-07-24T16:58:35.147Z,100054.80
2018-07-24T17:01:04.104Z,100051.07
2018-07-24T17:03:33.369Z,100058.30
2018-07-24T17:06:10.828Z,100048.32
2018-07-24T17:08:40.101Z,100054.50
2018-07-24T17:11:09.394Z,100054.97
2018-07-24T17:13:38.959Z,100053.16
2018-07-24T17:16:08.113Z,100052.84
2018-07-24T17:18:36.677Z,100050.20
2018-07-24T17:21:05.732Z,100054.00
2018-07-24T17:23:35.132Z,100057.22
2018-07-24T17:26:04.632Z,100044.41
2018-07-24T17:28:34.186Z,100045.31
2018-07-24T17:31:03.557Z,100053.63
2018-07-24T17:33:32.301Z,100055.15
2018-07-24T17:36:00.927Z,100057.47
2018-07-24T17:38:41.013Z,100059.88
2018-07-24T17:41:09.992Z,100058.45
2018-07-24T17:43:38.615Z,100056.52
2018-07-24T17:46:07.405Z,100060.52
2018-07-24T17:48:36.253Z,100054.65
2018-07-24T17:51:07.675Z,100062.14
2018-07-24T17:53:36.297Z,100066.55
2018-07-24T17:56:08.236Z,100066.82
2018-07-24T17:58:37.458Z,100065.08
2018-07-24T18:01:06.631Z,100066.89
2018-07-24T18:03:35.413Z,100064.61
2018-07-24T18:06:06.448Z,100059.30
2018-07-24T18:08:35.005Z,100058.03
2018-07-24T18:11:03.892Z,100065.56
2018-07-24T18:13:33.377Z,100066.54
2018-07-24T18:16:03.071Z,100068.48
2018-07-24T18:18:31.806Z,100074.03
2018-07-24T18:21:15.626Z,100072.14
2018-07-24T18:23:44.216Z,100069.73
2018-07-24T18:26:14.445Z,100073.38
2018-07-24T18:28:43.067Z,100075.09
2018-07-24T18:31:13.895Z,100070.99
2018-07-24T18:33:42.547Z,100075.07
2018-07-24T18:36:15.155Z,100074.83
2018-07-24T18:38:44.045Z,100080.34
2018-07-24T18:41:13.128Z,100076.00
2018-07-24T18:43:42.502Z,100077.35
2018-07-24T18:46:11.284Z,100079.59
2018-07-24T18:48:41.806Z,100081.30
2018-07-24T18:51:10.518Z,100075.70
2018-07-24T18:53:39.413Z,100070.87
2018-07-24T19:09:21.668Z,100084.23
2018-07-24T19:11:50.592Z,100087.73
2018-07-24T19:14:19.414Z,100079.26
2018-07-24T19:16:49.429Z,100090.47
2018-07-24T19:19:18.383Z,100088.83
2018-07-24T19:21:47.035Z,100094.94
2018-07-24T19:24:20.674Z,100097.44
2018-07-24T19:26:49.566Z,100098.27
2018-07-24T19:29:19.253Z,100096.40
2018-07-24T19:31:47.817Z,100100.81
2018-07-24T19:34:17.313Z,100100.91
2018-07-24T19:36:45.844Z,100095.03
2018-07-24T19:39:14.471Z,100103.76
2018-07-24T19:41:44.152Z,100108.52
2018-07-24T19:44:12.947Z,100112.60
2018-07-24T19:46:41.484Z,100118.16
2018-07-24T19:49:17.927Z,100109.75
2018-07-24T19:51:46.428Z,100117.22
2018-07-24T19:54:15.359Z,100107.98
2018-07-24T19:56:44.231Z,100117.89
2018-07-24T19:59:36.686Z,100115.33
2018-07-24T20:02:07.559Z,100113.87
2018-07-24T20:04:36.490Z,100118.84
2018-07-24T20:07:05.128Z,100125.50
2018-07-24T20:09:34.079Z,100120.12
2018-07-24T20:12:03.492Z,100123.42
2018-07-24T20:14:32.057Z,100122.09
2018-07-24T20:17:04.621Z,100125.04
2018-07-24T20:19:33.545Z,100122.78
2018-07-24T20:22:05.412Z,100125.93
2018-07-24T20:27:14.892Z,100128.93
2018-07-24T20:29:49.385Z,100123.84
2018-07-24T20:32:18.744Z,100124.81
2018-07-24T20:34:47.373Z,100126.22
2018-07-24T20:37:16.404Z,100130.28
2018-07-24T20:39:46.052Z,100130.61
2018-07-24T20:42:15.101Z,100130.20
2018-07-24T20:44:44.068Z,100135.86
2018-07-24T20:47:20.277Z,100133.14
2018-07-24T20:49:49.288Z,100135.67
2018-07-24T20:52:18.370Z,100131.22
2018-07-24T20:54:52.190Z,100129.15
2018-07-24T20:57:21.297Z,100126.80
2018-07-24T20:59:55.572Z,100128.48
2018-07-24T21:02:24.327Z,100122.57
2018-07-24T21:04:53.295Z,100127.29
2018-07-24T21:07:22.408Z,100128.77
2018-07-24T21:09:51.018Z,100123.80
2018-07-24T21:12:20.400Z,100124.45
2018-07-24T21:14:49.078Z,100130.09
2018-07-24T21:17:17.837Z,100130.41
2018-07-24T21:19:46.929Z,100133.47
2018-07-24T21:22:15.890Z,100135.91
2018-07-24T21:24:44.474Z,100136.42
2018-07-24T21:27:13.573Z,100138.29
2018-07-24T21:29:42.109Z,100143.00
2018-07-24T21:32:10.759Z,100143.11
2018-07-24T21:34:39.869Z,100143.23
2018-07-24T21:37:08.495Z,100144.91
2018-07-24T21:39:38.120Z,100145.22
2018-07-24T21:42:07.075Z,100145.77
2018-07-24T21:44:35.665Z,100150.57
2018-07-24T21:47:04.444Z,100147.03
2018-07-24T21:49:33.368Z,100148.06
2018-07-24T21:52:09.302Z,100154.00
2018-07-24T21:54:38.360Z,100149.63
2018-07-24T21:57:09.290Z,100149.66
2018-07-24T21:59:38.791Z,100149.85
2018-07-24T22:02:07.614Z,100151.42
2018-07-24T22:04:36.150Z,100148.61
2018-07-24T22:07:04.867Z,100151.43
2018-07-24T22:09:33.770Z,100153.11
2018-07-24T22:12:05.060Z,100149.56
2018-07-24T22:14:33.737Z,100158.02
2018-07-24T22:17:02.277Z,100158.41
2018-07-24T22:19:31.495Z,100152.89
2018-07-24T22:22:00.272Z,100156.95
2018-07-24T22:24:29.002Z,100159.22
2018-07-24T22:26:57.669Z,100167.77
2018-07-24T22:29:26.630Z,100162.97
2018-07-24T22:31:55.375Z,100171.81
2018-07-24T22:34:23.915Z,100170.05
2018-07-24T22:36:52.561Z,100172.02
2018-07-24T22:39:21.119Z,100170.34
2018-07-24T22:41:50.606Z,100169.49
2018-07-24T22:44:19.202Z,100173.24
2018-07-24T22:46:48.193Z,100171.48
2018-07-24T22:49:16.764Z,100169.17
2018-07-24T22:51:45.315Z,100167.41
2018-07-24T22:54:14.158Z,100177.17
2018-07-24T22:56:42.787Z,100175.89
2018-07-24T22:59:14.802Z,100180.55
2018-07-24T23:01:43.728Z,100183.02
2018-07-24T23:04:12.293Z,100182.61
2018-07-24T23:06:40.914Z,100176.96
2018-07-24T23:09:10.652Z,100179.25
2018-07-24T23:11:39.661Z,100183.27
2018-07-24T23:14:08.243Z,100178.67
2018-07-24T23:16:37.155Z,100178.55
2018-07-24T23:19:05.730Z,100177.77
2018-07-24T23:21:34.232Z,100181.23
2018-07-24T23:24:03.773Z,100178.50
2018-07-24T23:26:35.662Z,100171.92
2018-07-24T23:29:04.248Z,100165.97
2018-07-24T23:31:32.742Z,100169.47
2018-07-24T23:34:01.787Z,100176.00
2018-07-24T23:36:30.844Z,100173.77
2018-07-24T23:38:59.402Z,100186.00
2018-07-24T23:41:27.944Z,100184.31
2018-07-24T23:43:56.561Z,100179.96
2018-07-24T23:46:27.674Z,100170.79
2018-07-24T23:48:56.208Z,100172.87
2018-07-24T23:51:24.793Z,100182.13
2018-07-24T23:53:53.315Z,100183.34
2018-07-24T23:56:23.300Z,100179.50
2018-07-24T23:58:51.839Z,100179.00
